sensor_id;sensor_type;location;lat;lon;timestamp;temperature;humidity
58582;DHT22;44361;51.476;5.700;2023-03-14T00:00:57;11.70;99.90
58582;DHT22;44361;51.476;5.700;2023-03-14T00:03:23;11.70;99.90
58582;DHT22;44361;51.476;5.700;2023-03-14T00:05:49;11.60;99.90
58582;DHT22;44361;51.476;5.700;2023-03-14T00:08:14;11.70;99.90
58582;DHT22;44361;51.476;5.700;2023-03-14T00:10:40;11.60;99.90
58582;DHT22;44361;51.476;5.700;2023-03-14T00:13:06;11.60;99.90
58582;DHT22;44361;51.476;5.700;2023-03-14T00:15:35;11.60;99.90
58582;DHT22;44361;51.476;5.700;2023-03-14T00:18:01;11.60;99.90
58582;DHT22;44361;51.476;5.700;2023-03-14T00:20:26;11.50;99.90
58582;DHT22;44361;51.476;5.700;2023-03-14T00:22:52;11.50;99.90
58582;DHT22;44361;51.476;5.700;2023-03-14T00:25:18;11.50;99.90
58582;DHT22;44361;51.476;5.700;2023-03-14T00:27:43;11.50;99.90
58582;DHT22;44361;51.476;5.700;2023-03-14T00:30:09;11.50;99.90
58582;DHT22;44361;51.476;5.700;2023-03-14T00:32:35;11.50;99.90
58582;DHT22;44361;51.476;5.700;2023-03-14T00:35:01;11.50;99.90
58582;DHT22;44361;51.476;5.700;2023-03-14T00:37:28;11.60;99.90
58582;DHT22;44361;51.476;5.700;2023-03-14T00:39:54;11.60;99.90
58582;DHT22;44361;51.476;5.700;2023-03-14T00:42:19;11.50;99.90
58582;DHT22;44361;51.476;5.700;2023-03-14T00:44:45;11.50;99.90
58582;DHT22;44361;51.476;5.700;2023-03-14T00:47:11;11.40;99.90
58582;DHT22;44361;51.476;5.700;2023-03-14T00:49:36;11.30;99.90
58582;DHT22;44361;51.476;5.700;2023-03-14T00:52:02;11.30;99.90
58582;DHT22;44361;51.476;5.700;2023-03-14T00:54:27;11.20;99.90
58582;DHT22;44361;51.476;5.700;2023-03-14T00:56:53;11.20;99.90
58582;DHT22;44361;51.476;5.700;2023-03-14T00:59:18;11.10;99.90
58582;DHT22;44361;51.476;5.700;2023-03-14T01:01:44;11.00;99.90
58582;DHT22;44361;51.476;5.700;2023-03-14T01:04:10;11.10;99.90
58582;DHT22;44361;51.476;5.700;2023-03-14T01:06:36;11.10;99.90
58582;DHT22;44361;51.476;5.700;2023-03-14T01:09:02;11.20;99.90
58582;DHT22;44361;51.476;5.700;2023-03-14T01:11:31;11.10;99.90
58582;DHT22;44361;51.476;5.700;2023-03-14T01:13:57;11.10;99.90
58582;DHT22;44361;51.476;5.700;2023-03-14T01:16:25;11.00;99.90
58582;DHT22;44361;51.476;5.700;2023-03-14T01:18:51;10.90;99.90
58582;DHT22;44361;51.476;5.700;2023-03-14T01:21:22;10.90;99.90
58582;DHT22;44361;51.476;5.700;2023-03-14T01:23:49;10.90;99.90
58582;DHT22;44361;51.476;5.700;2023-03-14T01:26:17;11.00;99.90
58582;DHT22;44361;51.476;5.700;2023-03-14T01:28:45;11.10;99.90
58582;DHT22;44361;51.476;5.700;2023-03-14T01:31:11;11.10;99.90
58582;DHT22;44361;51.476;5.700;2023-03-14T01:33:38;11.10;99.90
58582;DHT22;44361;51.476;5.700;2023-03-14T01:36:05;11.10;99.90
58582;DHT22;44361;51.476;5.700;2023-03-14T01:38:31;11.10;99.90
58582;DHT22;44361;51.476;5.700;2023-03-14T01:40:58;11.10;99.90
58582;DHT22;44361;51.476;5.700;2023-03-14T01:43:24;11.10;99.90
58582;DHT22;44361;51.476;5.700;2023-03-14T01:48:40;11.10;99.90
58582;DHT22;44361;51.476;5.700;2023-03-14T01:51:10;11.10;99.90
58582;DHT22;44361;51.476;5.700;2023-03-14T01:53:37;11.00;99.90
58582;DHT22;44361;51.476;5.700;2023-03-14T01:56:05;11.00;99.90
58582;DHT22;44361;51.476;5.700;2023-03-14T01:58:32;11.00;99.90
58582;DHT22;44361;51.476;5.700;2023-03-14T02:01:01;11.00;99.90
58582;DHT22;44361;51.476;5.700;2023-03-14T02:03:28;11.00;99.90
58582;DHT22;44361;51.476;5.700;2023-03-14T02:05:57;11.10;99.90
58582;DHT22;44361;51.476;5.700;2023-03-14T02:08:27;11.00;99.90
58582;DHT22;44361;51.476;5.700;2023-03-14T02:10:53;10.90;99.90
58582;DHT22;44361;51.476;5.700;2023-03-14T02:13:19;10.90;99.90
58582;DHT22;44361;51.476;5.700;2023-03-14T02:15:47;10.90;99.90
58582;DHT22;44361;51.476;5.700;2023-03-14T02:18:14;10.90;99.90
58582;DHT22;44361;51.476;5.700;2023-03-14T02:21:05;10.90;99.90
58582;DHT22;44361;51.476;5.700;2023-03-14T02:23:46;10.90;99.90
58582;DHT22;44361;51.476;5.700;2023-03-14T02:26:37;10.90;99.90
58582;DHT22;44361;51.476;5.700;2023-03-14T02:29:04;10.80;99.90
58582;DHT22;44361;51.476;5.700;2023-03-14T02:31:29;10.80;99.90
58582;DHT22;44361;51.476;5.700;2023-03-14T02:33:56;10.80;99.90
58582;DHT22;44361;51.476;5.700;2023-03-14T02:36:23;10.70;99.90
58582;DHT22;44361;51.476;5.700;2023-03-14T02:39:12;10.60;99.90
58582;DHT22;44361;51.476;5.700;2023-03-14T02:41:39;10.50;99.90
58582;DHT22;44361;51.476;5.700;2023-03-14T02:44:05;10.50;99.90
58582;DHT22;44361;51.476;5.700;2023-03-14T02:46:30;10.50;99.90
58582;DHT22;44361;51.476;5.700;2023-03-14T02:49:03;10.40;99.90
58582;DHT22;44361;51.476;5.700;2023-03-14T02:51:30;10.40;99.90
58582;DHT22;44361;51.476;5.700;2023-03-14T02:53:55;10.40;99.90
58582;DHT22;44361;51.476;5.700;2023-03-14T02:56:21;10.40;99.90
58582;DHT22;44361;51.476;5.700;2023-03-14T02:58:47;10.40;99.90
58582;DHT22;44361;51.476;5.700;2023-03-14T03:01:12;10.30;99.90
58582;DHT22;44361;51.476;5.700;2023-03-14T03:03:38;10.30;99.90
58582;DHT22;44361;51.476;5.700;2023-03-14T03:06:03;10.20;99.90
58582;DHT22;44361;51.476;5.700;2023-03-14T03:08:29;10.30;99.90
58582;DHT22;44361;51.476;5.700;2023-03-14T03:10:56;10.30;99.90
58582;DHT22;44361;51.476;5.700;2023-03-14T03:13:21;10.30;99.90
58582;DHT22;44361;51.476;5.700;2023-03-14T03:15:47;10.40;99.90
58582;DHT22;44361;51.476;5.700;2023-03-14T03:18:12;10.40;99.90
58582;DHT22;44361;51.476;5.700;2023-03-14T03:20:38;10.40;99.90
58582;DHT22;44361;51.476;5.700;2023-03-14T03:23:04;10.50;99.90
58582;DHT22;44361;51.476;5.700;2023-03-14T03:25:30;10.50;99.90
58582;DHT22;44361;51.476;5.700;2023-03-14T03:27:56;10.50;99.90
58582;DHT22;44361;51.476;5.700;2023-03-14T03:30:22;10.40;99.90
58582;DHT22;44361;51.476;5.700;2023-03-14T03:32:47;10.40;99.90
58582;DHT22;44361;51.476;5.700;2023-03-14T03:35:13;10.40;99.90
58582;DHT22;44361;51.476;5.700;2023-03-14T03:37:39;10.40;99.90
58582;DHT22;44361;51.476;5.700;2023-03-14T03:40:05;10.40;99.90
58582;DHT22;44361;51.476;5.700;2023-03-14T03:42:32;10.40;99.90
58582;DHT22;44361;51.476;5.700;2023-03-14T03:44:58;10.40;99.90
58582;DHT22;44361;51.476;5.700;2023-03-14T03:47:24;10.30;99.90
58582;DHT22;44361;51.476;5.700;2023-03-14T03:49:49;10.30;99.90
58582;DHT22;44361;51.476;5.700;2023-03-14T03:52:16;10.30;99.90
58582;DHT22;44361;51.476;5.700;2023-03-14T03:54:41;10.30;99.90
58582;DHT22;44361;51.476;5.700;2023-03-14T03:57:07;10.30;99.90
58582;DHT22;44361;51.476;5.700;2023-03-14T03:59:32;10.30;99.90
58582;DHT22;44361;51.476;5.700;2023-03-14T04:01:58;10.20;99.90
58582;DHT22;44361;51.476;5.700;2023-03-14T04:04:23;10.20;99.90
58582;DHT22;44361;51.476;5.700;2023-03-14T04:06:49;10.10;99.90
58582;DHT22;44361;51.476;5.700;2023-03-14T04:09:14;9.90;99.90
58582;DHT22;44361;51.476;5.700;2023-03-14T04:11:40;9.90;99.90
58582;DHT22;44361;51.476;5.700;2023-03-14T04:14:07;9.80;99.90
58582;DHT22;44361;51.476;5.700;2023-03-14T04:16:32;9.70;99.90
58582;DHT22;44361;51.476;5.700;2023-03-14T04:18:58;9.70;99.90
58582;DHT22;44361;51.476;5.700;2023-03-14T04:21:24;9.60;99.90
58582;DHT22;44361;51.476;5.700;2023-03-14T04:23:49;9.60;99.90
58582;DHT22;44361;51.476;5.700;2023-03-14T04:26:15;9.50;99.90
58582;DHT22;44361;51.476;5.700;2023-03-14T04:28:41;9.50;99.90
58582;DHT22;44361;51.476;5.700;2023-03-14T04:31:15;9.50;99.90
58582;DHT22;44361;51.476;5.700;2023-03-14T04:33:41;9.60;99.90
58582;DHT22;44361;51.476;5.700;2023-03-14T04:36:07;9.60;99.90
58582;DHT22;44361;51.476;5.700;2023-03-14T04:38:33;9.60;99.90
58582;DHT22;44361;51.476;5.700;2023-03-14T04:40:59;9.60;99.90
58582;DHT22;44361;51.476;5.700;2023-03-14T04:43:26;9.60;99.90
58582;DHT22;44361;51.476;5.700;2023-03-14T04:45:53;9.50;99.90
58582;DHT22;44361;51.476;5.700;2023-03-14T04:48:19;9.50;99.90
58582;DHT22;44361;51.476;5.700;2023-03-14T04:50:46;9.40;99.90
58582;DHT22;44361;51.476;5.700;2023-03-14T04:53:12;9.40;99.90
58582;DHT22;44361;51.476;5.700;2023-03-14T04:55:37;9.40;99.90
58582;DHT22;44361;51.476;5.700;2023-03-14T04:58:03;9.50;99.90
58582;DHT22;44361;51.476;5.700;2023-03-14T05:00:28;9.50;99.90
58582;DHT22;44361;51.476;5.700;2023-03-14T05:02:54;9.60;99.90
58582;DHT22;44361;51.476;5.700;2023-03-14T05:05:19;9.50;99.90
58582;DHT22;44361;51.476;5.700;2023-03-14T05:07:45;9.50;99.90
58582;DHT22;44361;51.476;5.700;2023-03-14T05:10:11;9.50;99.90
58582;DHT22;44361;51.476;5.700;2023-03-14T05:12:36;9.50;99.90
58582;DHT22;44361;51.476;5.700;2023-03-14T05:15:02;9.50;99.90
58582;DHT22;44361;51.476;5.700;2023-03-14T05:17:29;9.50;99.90
58582;DHT22;44361;51.476;5.700;2023-03-14T05:19:55;9.50;99.90
58582;DHT22;44361;51.476;5.700;2023-03-14T05:22:21;9.50;99.90
58582;DHT22;44361;51.476;5.700;2023-03-14T05:24:46;9.50;99.90
58582;DHT22;44361;51.476;5.700;2023-03-14T05:27:12;9.50;99.90
58582;DHT22;44361;51.476;5.700;2023-03-14T05:29:38;9.50;99.90
58582;DHT22;44361;51.476;5.700;2023-03-14T05:32:03;9.50;99.90
58582;DHT22;44361;51.476;5.700;2023-03-14T05:34:29;9.50;99.90
58582;DHT22;44361;51.476;5.700;2023-03-14T05:36:55;9.50;99.90
58582;DHT22;44361;51.476;5.700;2023-03-14T05:39:21;9.50;99.90
58582;DHT22;44361;51.476;5.700;2023-03-14T05:41:47;9.60;99.90
58582;DHT22;44361;51.476;5.700;2023-03-14T05:44:12;9.60;99.90
58582;DHT22;44361;51.476;5.700;2023-03-14T05:46:38;9.60;99.90
58582;DHT22;44361;51.476;5.700;2023-03-14T05:49:04;9.60;99.90
58582;DHT22;44361;51.476;5.700;2023-03-14T05:51:29;9.60;99.90
58582;DHT22;44361;51.476;5.700;2023-03-14T05:53:55;9.60;99.90
58582;DHT22;44361;51.476;5.700;2023-03-14T05:56:20;9.60;99.90
58582;DHT22;44361;51.476;5.700;2023-03-14T05:58:46;9.60;99.90
58582;DHT22;44361;51.476;5.700;2023-03-14T06:01:11;9.60;99.90
58582;DHT22;44361;51.476;5.700;2023-03-14T06:03:37;9.60;99.90
58582;DHT22;44361;51.476;5.700;2023-03-14T06:06:02;9.60;99.90
58582;DHT22;44361;51.476;5.700;2023-03-14T06:08:28;9.60;99.90
58582;DHT22;44361;51.476;5.700;2023-03-14T06:10:54;9.60;99.90
58582;DHT22;44361;51.476;5.700;2023-03-14T06:13:20;9.60;99.90
58582;DHT22;44361;51.476;5.700;2023-03-14T06:15:46;9.70;99.90
58582;DHT22;44361;51.476;5.700;2023-03-14T06:18:11;9.70;99.90
58582;DHT22;44361;51.476;5.700;2023-03-14T06:20:38;9.70;99.90
58582;DHT22;44361;51.476;5.700;2023-03-14T06:23:07;9.70;99.90
58582;DHT22;44361;51.476;5.700;2023-03-14T06:25:34;9.60;99.90
58582;DHT22;44361;51.476;5.700;2023-03-14T06:27:59;9.70;99.90
58582;DHT22;44361;51.476;5.700;2023-03-14T06:30:25;9.60;99.90
58582;DHT22;44361;51.476;5.700;2023-03-14T06:32:50;9.60;99.90
58582;DHT22;44361;51.476;5.700;2023-03-14T06:35:16;9.60;99.90
58582;DHT22;44361;51.476;5.700;2023-03-14T06:37:42;9.70;99.90
58582;DHT22;44361;51.476;5.700;2023-03-14T06:40:10;9.70;99.90
58582;DHT22;44361;51.476;5.700;2023-03-14T06:42:35;9.70;99.90
58582;DHT22;44361;51.476;5.700;2023-03-14T06:45:01;9.70;99.90
58582;DHT22;44361;51.476;5.700;2023-03-14T06:47:27;9.80;99.90
58582;DHT22;44361;51.476;5.700;2023-03-14T06:49:53;9.80;99.90
58582;DHT22;44361;51.476;5.700;2023-03-14T06:52:18;9.90;99.90
58582;DHT22;44361;51.476;5.700;2023-03-14T06:54:44;10.00;99.90
58582;DHT22;44361;51.476;5.700;2023-03-14T06:57:09;10.10;99.90
58582;DHT22;44361;51.476;5.700;2023-03-14T06:59:34;10.20;99.90
58582;DHT22;44361;51.476;5.700;2023-03-14T07:02:00;10.30;99.90
58582;DHT22;44361;51.476;5.700;2023-03-14T07:04:25;10.40;99.90
58582;DHT22;44361;51.476;5.700;2023-03-14T07:06:51;10.50;99.90
58582;DHT22;44361;51.476;5.700;2023-03-14T07:09:17;10.50;99.90
58582;DHT22;44361;51.476;5.700;2023-03-14T07:11:43;10.60;99.90
58582;DHT22;44361;51.476;5.700;2023-03-14T07:14:08;10.90;99.90
58582;DHT22;44361;51.476;5.700;2023-03-14T07:16:34;11.10;99.90
58582;DHT22;44361;51.476;5.700;2023-03-14T07:19:00;11.20;99.90
58582;DHT22;44361;51.476;5.700;2023-03-14T07:21:26;11.20;99.90
58582;DHT22;44361;51.476;5.700;2023-03-14T07:23:52;11.00;99.90
58582;DHT22;44361;51.476;5.700;2023-03-14T07:26:17;11.00;99.90
58582;DHT22;44361;51.476;5.700;2023-03-14T07:28:43;10.90;99.90
58582;DHT22;44361;51.476;5.700;2023-03-14T07:31:08;10.90;99.90
58582;DHT22;44361;51.476;5.700;2023-03-14T07:33:34;10.90;99.90
58582;DHT22;44361;51.476;5.700;2023-03-14T07:36:00;10.80;99.90
58582;DHT22;44361;51.476;5.700;2023-03-14T07:38:26;10.70;99.90
58582;DHT22;44361;51.476;5.700;2023-03-14T07:41:00;10.70;99.90
58582;DHT22;44361;51.476;5.700;2023-03-14T07:43:26;10.60;99.90
58582;DHT22;44361;51.476;5.700;2023-03-14T07:45:52;10.60;99.90
58582;DHT22;44361;51.476;5.700;2023-03-14T07:48:17;10.50;99.90
58582;DHT22;44361;51.476;5.700;2023-03-14T07:50:43;10.40;99.90
58582;DHT22;44361;51.476;5.700;2023-03-14T07:53:09;10.30;99.90
58582;DHT22;44361;51.476;5.700;2023-03-14T07:55:35;10.10;99.90
58582;DHT22;44361;51.476;5.700;2023-03-14T07:58:00;9.60;99.90
58582;DHT22;44361;51.476;5.700;2023-03-14T08:00:26;9.10;99.90
58582;DHT22;44361;51.476;5.700;2023-03-14T08:02:52;8.70;99.90
58582;DHT22;44361;51.476;5.700;2023-03-14T08:05:17;8.50;99.90
58582;DHT22;44361;51.476;5.700;2023-03-14T08:07:43;8.40;99.90
58582;DHT22;44361;51.476;5.700;2023-03-14T08:10:09;8.20;99.90
58582;DHT22;44361;51.476;5.700;2023-03-14T08:12:35;8.20;99.90
58582;DHT22;44361;51.476;5.700;2023-03-14T08:15:00;8.10;99.90
58582;DHT22;44361;51.476;5.700;2023-03-14T08:17:26;8.10;99.90
58582;DHT22;44361;51.476;5.700;2023-03-14T08:19:52;7.90;99.90
58582;DHT22;44361;51.476;5.700;2023-03-14T08:22:17;7.80;99.90
58582;DHT22;44361;51.476;5.700;2023-03-14T08:24:43;7.80;99.90
58582;DHT22;44361;51.476;5.700;2023-03-14T08:27:08;7.80;99.90
58582;DHT22;44361;51.476;5.700;2023-03-14T08:29:34;7.90;99.90
58582;DHT22;44361;51.476;5.700;2023-03-14T08:31:59;7.90;99.90
58582;DHT22;44361;51.476;5.700;2023-03-14T08:34:25;7.90;99.90
58582;DHT22;44361;51.476;5.700;2023-03-14T08:36:50;7.90;99.90
58582;DHT22;44361;51.476;5.700;2023-03-14T08:39:16;7.90;99.90
58582;DHT22;44361;51.476;5.700;2023-03-14T08:41:41;7.90;99.90
58582;DHT22;44361;51.476;5.700;2023-03-14T08:44:08;7.90;99.90
58582;DHT22;44361;51.476;5.700;2023-03-14T08:46:34;7.90;99.90
58582;DHT22;44361;51.476;5.700;2023-03-14T08:49:00;8.00;99.90
58582;DHT22;44361;51.476;5.700;2023-03-14T08:51:25;8.00;99.90
58582;DHT22;44361;51.476;5.700;2023-03-14T08:53:51;8.10;99.90
58582;DHT22;44361;51.476;5.700;2023-03-14T08:56:16;8.10;99.90
58582;DHT22;44361;51.476;5.700;2023-03-14T08:58:42;8.10;99.90
58582;DHT22;44361;51.476;5.700;2023-03-14T09:01:10;8.20;99.90
58582;DHT22;44361;51.476;5.700;2023-03-14T09:03:36;8.20;99.90
58582;DHT22;44361;51.476;5.700;2023-03-14T09:06:05;8.30;99.90
58582;DHT22;44361;51.476;5.700;2023-03-14T09:08:31;8.50;99.90
58582;DHT22;44361;51.476;5.700;2023-03-14T09:10:57;8.50;99.90
58582;DHT22;44361;51.476;5.700;2023-03-14T09:13:22;8.70;99.90
58582;DHT22;44361;51.476;5.700;2023-03-14T09:15:52;8.70;99.90
58582;DHT22;44361;51.476;5.700;2023-03-14T09:18:18;8.60;99.90
58582;DHT22;44361;51.476;5.700;2023-03-14T09:20:43;8.70;99.90
58582;DHT22;44361;51.476;5.700;2023-03-14T09:23:09;8.90;99.90
58582;DHT22;44361;51.476;5.700;2023-03-14T09:25:34;9.00;99.90
58582;DHT22;44361;51.476;5.700;2023-03-14T09:28:00;9.00;99.90
58582;DHT22;44361;51.476;5.700;2023-03-14T09:30:25;8.90;99.90
58582;DHT22;44361;51.476;5.700;2023-03-14T09:32:51;8.80;99.90
58582;DHT22;44361;51.476;5.700;2023-03-14T09:35:16;8.70;99.90
58582;DHT22;44361;51.476;5.700;2023-03-14T09:37:42;8.50;99.90
58582;DHT22;44361;51.476;5.700;2023-03-14T09:40:13;8.40;99.90
58582;DHT22;44361;51.476;5.700;2023-03-14T09:42:40;8.10;99.90
58582;DHT22;44361;51.476;5.700;2023-03-14T09:45:11;7.80;99.90
58582;DHT22;44361;51.476;5.700;2023-03-14T09:47:39;7.60;99.90
58582;DHT22;44361;51.476;5.700;2023-03-14T09:50:09;7.60;99.90
58582;DHT22;44361;51.476;5.700;2023-03-14T09:52:38;7.50;99.90
58582;DHT22;44361;51.476;5.700;2023-03-14T09:55:10;7.50;99.90
58582;DHT22;44361;51.476;5.700;2023-03-14T09:57:37;6.90;99.90
58582;DHT22;44361;51.476;5.700;2023-03-14T10:00:10;6.70;99.90
58582;DHT22;44361;51.476;5.700;2023-03-14T10:02:42;6.50;99.90
58582;DHT22;44361;51.476;5.700;2023-03-14T10:05:15;6.40;99.90
58582;DHT22;44361;51.476;5.700;2023-03-14T10:07:42;6.40;99.90
58582;DHT22;44361;51.476;5.700;2023-03-14T10:10:24;6.40;99.90
58582;DHT22;44361;51.476;5.700;2023-03-14T10:13:10;6.60;99.90
58582;DHT22;44361;51.476;5.700;2023-03-14T10:15:39;6.80;99.90
58582;DHT22;44361;51.476;5.700;2023-03-14T10:18:10;7.00;99.90
58582;DHT22;44361;51.476;5.700;2023-03-14T10:20:42;7.00;99.90
58582;DHT22;44361;51.476;5.700;2023-03-14T10:25:42;7.20;99.90
58582;DHT22;44361;51.476;5.700;2023-03-14T10:28:26;7.30;99.90
58582;DHT22;44361;51.476;5.700;2023-03-14T10:30:52;7.60;99.90
58582;DHT22;44361;51.476;5.700;2023-03-14T10:33:23;7.70;99.90
58582;DHT22;44361;51.476;5.700;2023-03-14T10:36:00;7.80;99.90
58582;DHT22;44361;51.476;5.700;2023-03-14T10:38:29;7.50;99.90
58582;DHT22;44361;51.476;5.700;2023-03-14T10:40:55;7.40;99.90
58582;DHT22;44361;51.476;5.700;2023-03-14T10:43:31;7.60;99.90
58582;DHT22;44361;51.476;5.700;2023-03-14T10:46:17;7.60;99.90
58582;DHT22;44361;51.476;5.700;2023-03-14T10:48:43;7.60;99.90
58582;DHT22;44361;51.476;5.700;2023-03-14T10:54:01;7.80;99.90
58582;DHT22;44361;51.476;5.700;2023-03-14T10:56:28;8.00;99.90
58582;DHT22;44361;51.476;5.700;2023-03-14T10:58:58;8.10;99.90
58582;DHT22;44361;51.476;5.700;2023-03-14T11:01:38;8.10;99.90
58582;DHT22;44361;51.476;5.700;2023-03-14T11:04:29;8.30;99.90
58582;DHT22;44361;51.476;5.700;2023-03-14T11:09:50;8.70;99.90
58582;DHT22;44361;51.476;5.700;2023-03-14T11:15:22;8.30;99.90
58582;DHT22;44361;51.476;5.700;2023-03-14T11:18:13;8.10;99.90
58582;DHT22;44361;51.476;5.700;2023-03-14T11:20:59;8.10;99.90
58582;DHT22;44361;51.476;5.700;2023-03-14T11:29:18;8.20;99.90
58582;DHT22;44361;51.476;5.700;2023-03-14T11:31:45;8.60;99.90
58582;DHT22;44361;51.476;5.700;2023-03-14T11:34:27;8.70;99.90
58582;DHT22;44361;51.476;5.700;2023-03-14T11:37:00;8.70;99.90
58582;DHT22;44361;51.476;5.700;2023-03-14T11:39:32;8.30;99.60
58582;DHT22;44361;51.476;5.700;2023-03-14T11:42:01;8.00;99.90
58582;DHT22;44361;51.476;5.700;2023-03-14T11:44:31;7.70;99.90
58582;DHT22;44361;51.476;5.700;2023-03-14T11:52:52;5.80;99.90
58582;DHT22;44361;51.476;5.700;2023-03-14T11:57:51;6.00;99.90
58582;DHT22;44361;51.476;5.700;2023-03-14T12:00:19;6.20;99.90
58582;DHT22;44361;51.476;5.700;2023-03-14T12:10:52;6.80;99.90
58582;DHT22;44361;51.476;5.700;2023-03-14T12:13:19;6.90;99.90
58582;DHT22;44361;51.476;5.700;2023-03-14T12:15:56;7.00;99.90
58582;DHT22;44361;51.476;5.700;2023-03-14T12:18:30;7.20;99.90
58582;DHT22;44361;51.476;5.700;2023-03-14T12:20:59;7.50;99.90
58582;DHT22;44361;51.476;5.700;2023-03-14T12:23:26;7.80;99.90
58582;DHT22;44361;51.476;5.700;2023-03-14T12:28:37;7.10;99.90
58582;DHT22;44361;51.476;5.700;2023-03-14T12:39:37;6.40;99.90
58582;DHT22;44361;51.476;5.700;2023-03-14T12:42:12;6.60;99.90
58582;DHT22;44361;51.476;5.700;2023-03-14T12:44:43;6.80;99.90
58582;DHT22;44361;51.476;5.700;2023-03-14T12:49:52;7.00;99.90
58582;DHT22;44361;51.476;5.700;2023-03-14T12:52:33;7.00;99.90
58582;DHT22;44361;51.476;5.700;2023-03-14T12:57:36;7.30;99.90
58582;DHT22;44361;51.476;5.700;2023-03-14T13:00:20;7.50;99.90
58582;DHT22;44361;51.476;5.700;2023-03-14T13:02:47;7.50;99.90
58582;DHT22;44361;51.476;5.700;2023-03-14T13:05:22;7.70;99.90
58582;DHT22;44361;51.476;5.700;2023-03-14T13:10:28;8.00;99.90
58582;DHT22;44361;51.476;5.700;2023-03-14T13:13:24;8.30;99.90
58582;DHT22;44361;51.476;5.700;2023-03-14T13:15:56;8.70;99.90
58582;DHT22;44361;51.476;5.700;2023-03-14T13:18:36;8.90;99.20
58582;DHT22;44361;51.476;5.700;2023-03-14T13:21:26;8.90;96.80
58582;DHT22;44361;51.476;5.700;2023-03-14T13:23:59;8.90;97.10
58582;DHT22;44361;51.476;5.700;2023-03-14T13:26:36;9.20;96.80
58582;DHT22;44361;51.476;5.700;2023-03-14T13:31:47;9.10;95.40
58582;DHT22;44361;51.476;5.700;2023-03-14T13:34:14;9.10;91.80
58582;DHT22;44361;51.476;5.700;2023-03-14T13:36:39;8.90;91.40
58582;DHT22;44361;51.476;5.700;2023-03-14T13:39:13;9.00;91.80
58582;DHT22;44361;51.476;5.700;2023-03-14T13:41:43;9.00;86.00
58582;DHT22;44361;51.476;5.700;2023-03-14T13:44:14;8.90;79.90
58582;DHT22;44361;51.476;5.700;2023-03-14T13:46:41;8.70;77.50
58582;DHT22;44361;51.476;5.700;2023-03-14T13:49:10;8.70;82.50
58582;DHT22;44361;51.476;5.700;2023-03-14T13:51:38;8.80;81.30
58582;DHT22;44361;51.476;5.700;2023-03-14T13:54:16;8.80;79.30
58582;DHT22;44361;51.476;5.700;2023-03-14T13:56:43;8.90;74.10
58582;DHT22;44361;51.476;5.700;2023-03-14T13:59:32;9.00;68.60
58582;DHT22;44361;51.476;5.700;2023-03-14T14:02:18;8.70;66.20
58582;DHT22;44361;51.476;5.700;2023-03-14T14:04:44;8.70;67.90
58582;DHT22;44361;51.476;5.700;2023-03-14T14:07:14;8.60;69.10
58582;DHT22;44361;51.476;5.700;2023-03-14T14:09:48;8.50;67.20
58582;DHT22;44361;51.476;5.700;2023-03-14T14:12:36;8.60;70.70
58582;DHT22;44361;51.476;5.700;2023-03-14T14:15:11;8.60;70.80
58582;DHT22;44361;51.476;5.700;2023-03-14T14:17:49;8.60;68.70
58582;DHT22;44361;51.476;5.700;2023-03-14T14:20:29;8.70;70.70
58582;DHT22;44361;51.476;5.700;2023-03-14T14:23:02;9.00;70.50
58582;DHT22;44361;51.476;5.700;2023-03-14T14:25:32;9.20;72.10
58582;DHT22;44361;51.476;5.700;2023-03-14T14:27:58;9.10;68.90
58582;DHT22;44361;51.476;5.700;2023-03-14T14:30:30;9.00;71.50
58582;DHT22;44361;51.476;5.700;2023-03-14T14:33:20;9.00;66.40
58582;DHT22;44361;51.476;5.700;2023-03-14T14:36:04;8.90;69.10
58582;DHT22;44361;51.476;5.700;2023-03-14T14:38:30;8.80;65.80
58582;DHT22;44361;51.476;5.700;2023-03-14T14:41:00;8.90;63.90
58582;DHT22;44361;51.476;5.700;2023-03-14T14:43:28;9.00;65.10
58582;DHT22;44361;51.476;5.700;2023-03-14T14:45:55;8.90;64.70
58582;DHT22;44361;51.476;5.700;2023-03-14T14:48:25;8.70;65.50
58582;DHT22;44361;51.476;5.700;2023-03-14T14:51:02;8.50;65.50
58582;DHT22;44361;51.476;5.700;2023-03-14T14:53:43;8.40;65.70
58582;DHT22;44361;51.476;5.700;2023-03-14T14:56:25;8.50;66.40
58582;DHT22;44361;51.476;5.700;2023-03-14T14:58:59;8.50;64.30
58582;DHT22;44361;51.476;5.700;2023-03-14T15:01:33;8.40;63.60
58582;DHT22;44361;51.476;5.700;2023-03-14T15:04:00;8.50;62.90
58582;DHT22;44361;51.476;5.700;2023-03-14T15:06:28;8.30;59.80
58582;DHT22;44361;51.476;5.700;2023-03-14T15:08:57;8.40;61.50
58582;DHT22;44361;51.476;5.700;2023-03-14T15:11:24;8.60;63.90
58582;DHT22;44361;51.476;5.700;2023-03-14T15:13:51;8.70;62.90
58582;DHT22;44361;51.476;5.700;2023-03-14T15:16:20;8.50;65.80
58582;DHT22;44361;51.476;5.700;2023-03-14T15:18:57;8.50;65.50
58582;DHT22;44361;51.476;5.700;2023-03-14T15:21:24;8.20;64.80
58582;DHT22;44361;51.476;5.700;2023-03-14T15:23:50;8.10;62.80
58582;DHT22;44361;51.476;5.700;2023-03-14T15:26:21;8.10;66.70
58582;DHT22;44361;51.476;5.700;2023-03-14T15:28:47;8.10;65.40
58582;DHT22;44361;51.476;5.700;2023-03-14T15:31:14;8.00;61.80
58582;DHT22;44361;51.476;5.700;2023-03-14T15:33:41;7.90;63.10
58582;DHT22;44361;51.476;5.700;2023-03-14T15:36:21;7.90;63.60
58582;DHT22;44361;51.476;5.700;2023-03-14T15:38:48;7.90;64.40
58582;DHT22;44361;51.476;5.700;2023-03-14T15:41:14;7.70;64.60
58582;DHT22;44361;51.476;5.700;2023-03-14T15:43:41;7.70;65.70
58582;DHT22;44361;51.476;5.700;2023-03-14T15:46:09;7.60;65.30
58582;DHT22;44361;51.476;5.700;2023-03-14T15:48:35;7.50;65.00
58582;DHT22;44361;51.476;5.700;2023-03-14T15:51:00;7.50;64.40
58582;DHT22;44361;51.476;5.700;2023-03-14T15:53:26;7.50;65.40
58582;DHT22;44361;51.476;5.700;2023-03-14T15:55:51;7.40;64.20
58582;DHT22;44361;51.476;5.700;2023-03-14T15:58:18;7.20;62.90
58582;DHT22;44361;51.476;5.700;2023-03-14T16:00:44;7.20;64.80
58582;DHT22;44361;51.476;5.700;2023-03-14T16:03:10;7.20;68.40
58582;DHT22;44361;51.476;5.700;2023-03-14T16:05:38;7.20;65.30
58582;DHT22;44361;51.476;5.700;2023-03-14T16:08:04;7.10;64.80
58582;DHT22;44361;51.476;5.700;2023-03-14T16:10:30;7.00;63.50
58582;DHT22;44361;51.476;5.700;2023-03-14T16:12:55;7.00;65.90
58582;DHT22;44361;51.476;5.700;2023-03-14T16:15:21;6.90;65.00
58582;DHT22;44361;51.476;5.700;2023-03-14T16:17:46;6.90;67.00
58582;DHT22;44361;51.476;5.700;2023-03-14T16:20:12;6.90;66.10
58582;DHT22;44361;51.476;5.700;2023-03-14T16:22:38;6.90;65.40
58582;DHT22;44361;51.476;5.700;2023-03-14T16:25:07;6.80;65.40
58582;DHT22;44361;51.476;5.700;2023-03-14T16:27:33;6.70;65.20
58582;DHT22;44361;51.476;5.700;2023-03-14T16:29:58;6.70;67.90
58582;DHT22;44361;51.476;5.700;2023-03-14T16:32:25;6.70;67.20
58582;DHT22;44361;51.476;5.700;2023-03-14T16:34:51;6.70;67.80
58582;DHT22;44361;51.476;5.700;2023-03-14T16:37:16;6.70;68.80
58582;DHT22;44361;51.476;5.700;2023-03-14T16:39:42;6.80;69.70
58582;DHT22;44361;51.476;5.700;2023-03-14T16:42:07;6.70;67.00
58582;DHT22;44361;51.476;5.700;2023-03-14T16:44:33;6.70;66.40